createdAt,value
2022-12-25T00:00:21.167Z,20.83
2022-12-25T00:02:49.619Z,20.43
2022-12-25T00:05:18.049Z,21.23
2022-12-25T00:07:46.201Z,21.37
2022-12-25T00:10:14.570Z,22.33
2022-12-25T00:12:44.116Z,21.80
2022-12-25T00:15:12.459Z,23.07
2022-12-25T00:17:40.623Z,22.97
2022-12-25T00:20:10.254Z,22.77
2022-12-25T00:22:39.611Z,23.30
2022-12-25T00:25:08.246Z,23.67
2022-12-25T00:27:37.841Z,22.03
2022-12-25T00:30:09.229Z,23.57
2022-12-25T00:32:37.737Z,23.47
2022-12-25T00:35:07.053Z,23.93
2022-12-25T00:37:35.178Z,24.80
2022-12-25T00:40:03.543Z,23.23
2022-12-25T00:42:31.941Z,23.63
2022-12-25T00:45:01.505Z,24.67
2022-12-25T00:47:31.409Z,25.00
2022-12-25T00:49:59.578Z,21.47
2022-12-25T00:52:27.722Z,22.37
2022-12-25T00:54:55.892Z,22.20
2022-12-25T00:57:24.101Z,21.70
2022-12-25T00:59:52.320Z,22.90
2022-12-25T01:02:26.331Z,20.60
2022-12-25T01:04:57.776Z,23.50
2022-12-25T01:07:27.355Z,22.90
2022-12-25T01:10:13.048Z,21.30
2022-12-25T01:12:43.310Z,21.63
2022-12-25T01:15:13.577Z,22.63
2022-12-25T01:17:43.052Z,22.80
2022-12-25T01:20:14.008Z,24.00
2022-12-25T01:22:42.302Z,22.60
2022-12-25T01:25:11.809Z,22.83
2022-12-25T01:27:40.209Z,22.60
2022-12-25T01:30:09.469Z,23.37
2022-12-25T01:32:37.640Z,22.37
2022-12-25T01:35:06.580Z,22.17
2022-12-25T01:37:36.200Z,21.23
2022-12-25T01:40:04.816Z,21.87
2022-12-25T01:42:33.195Z,22.47
2022-12-25T01:45:31.124Z,22.53
2022-12-25T01:47:59.833Z,22.47
2022-12-25T01:50:28.891Z,23.33
2022-12-25T01:52:59.741Z,23.33
2022-12-25T01:55:29.009Z,21.97
2022-12-25T01:57:57.965Z,22.40
2022-12-25T02:00:26.412Z,22.53
2022-12-25T02:02:55.039Z,23.53
2022-12-25T02:05:26.812Z,22.10
2022-12-25T02:07:55.677Z,22.67
2022-12-25T02:10:25.374Z,22.73
2022-12-25T02:12:54.064Z,22.10
2022-12-25T02:15:24.488Z,22.57
2022-12-25T02:18:01.639Z,23.63
2022-12-25T02:20:42.112Z,22.73
2022-12-25T02:23:36.641Z,22.80
2022-12-25T02:26:27.272Z,22.77
2022-12-25T02:29:02.923Z,21.37
2022-12-25T02:31:39.664Z,22.43
2022-12-25T02:34:14.446Z,22.90
2022-12-25T02:36:46.877Z,22.57
2022-12-25T02:39:39.209Z,22.33
2022-12-25T02:42:13.565Z,22.33
2022-12-25T02:45:04.304Z,23.47
2022-12-25T02:47:53.798Z,22.80
2022-12-25T02:50:41.297Z,22.10
2022-12-25T02:53:28.196Z,22.63
2022-12-25T02:56:15.585Z,23.97
2022-12-25T02:59:02.676Z,22.93
2022-12-25T03:01:51.680Z,22.57
2022-12-25T03:04:41.952Z,22.90
2022-12-25T03:07:12.679Z,23.27
2022-12-25T03:10:01.569Z,23.50
2022-12-25T03:12:39.398Z,23.53
2022-12-25T03:15:28.838Z,24.77
2022-12-25T03:18:00.661Z,22.53
2022-12-25T03:20:47.530Z,25.30
2022-12-25T03:23:36.428Z,24.23
2022-12-25T03:26:22.462Z,26.60
2022-12-25T03:28:50.611Z,24.60
2022-12-25T03:31:26.646Z,27.03
2022-12-25T03:34:27.029Z,24.43
2022-12-25T03:37:24.818Z,25.43
2022-12-25T03:40:20.202Z,25.93
2022-12-25T03:43:11.707Z,26.33
2022-12-25T03:46:02.181Z,25.83
2022-12-25T03:48:51.684Z,27.20
2022-12-25T03:51:44.909Z,25.70
2022-12-25T03:54:33.039Z,27.53
2022-12-25T03:57:19.275Z,26.73
2022-12-25T04:00:10.215Z,26.07
2022-12-25T04:02:56.384Z,25.53
2022-12-25T04:05:42.165Z,24.27
2022-12-25T04:08:29.324Z,26.77
2022-12-25T04:11:14.644Z,26.17
2022-12-25T04:14:00.112Z,26.33
2022-12-25T04:16:45.680Z,25.00
2022-12-25T04:19:43.201Z,25.30
2022-12-25T04:22:28.800Z,26.10
2022-12-25T04:25:15.779Z,24.80
2022-12-25T04:28:01.300Z,26.63
2022-12-25T04:30:46.569Z,24.93
2022-12-25T04:33:31.997Z,28.63
2022-12-25T04:36:12.134Z,28.20
2022-12-25T04:38:41.839Z,27.30
2022-12-25T04:41:12.488Z,27.13
2022-12-25T04:43:40.994Z,26.37
2022-12-25T04:46:09.271Z,26.50
2022-12-25T04:48:38.049Z,28.50
2022-12-25T04:51:14.730Z,28.17
2022-12-25T04:53:43.171Z,27.77
2022-12-25T04:56:13.088Z,27.90
2022-12-25T04:58:41.800Z,28.63
2022-12-25T05:01:10.208Z,25.03
2022-12-25T05:03:38.975Z,26.53
2022-12-25T05:06:07.797Z,28.30
2022-12-25T05:08:37.339Z,27.50
2022-12-25T05:11:09.878Z,26.50
2022-12-25T05:13:39.973Z,27.90
2022-12-25T05:16:09.781Z,26.43
2022-12-25T05:18:38.015Z,26.13
2022-12-25T05:21:07.905Z,29.60
2022-12-25T05:23:36.108Z,26.90
2022-12-25T05:26:06.897Z,29.03
2022-12-25T05:28:35.613Z,28.03
2022-12-25T05:31:05.254Z,28.20
2022-12-25T05:33:33.501Z,28.37
2022-12-25T05:36:03.918Z,28.43
2022-12-25T05:38:32.127Z,28.80
2022-12-25T05:41:01.368Z,27.20
2022-12-25T05:43:30.432Z,27.33
2022-12-25T05:45:58.592Z,26.77
2022-12-25T05:48:28.170Z,26.30
2022-12-25T05:50:56.608Z,26.10
2022-12-25T05:53:25.022Z,27.93
2022-12-25T05:55:53.656Z,28.70
2022-12-25T05:58:22.123Z,29.43
2022-12-25T06:00:50.552Z,30.60
2022-12-25T06:03:19.078Z,29.40
2022-12-25T06:05:48.667Z,28.67
2022-12-25T06:08:17.105Z,28.53
2022-12-25T06:10:45.559Z,29.17
2022-12-25T06:13:14.014Z,27.27
2022-12-25T06:15:42.619Z,27.40
2022-12-25T06:18:11.143Z,27.57
2022-12-25T06:20:42.327Z,26.93
2022-12-25T06:23:12.011Z,25.97
2022-12-25T06:25:40.551Z,26.60
2022-12-25T06:28:09.240Z,24.93
2022-12-25T06:30:37.660Z,26.93
2022-12-25T06:33:05.889Z,26.97
2022-12-25T06:35:34.350Z,44.53
2022-12-25T06:38:02.784Z,35.10
2022-12-25T06:40:32.339Z,36.23
2022-12-25T06:43:00.769Z,33.30
2022-12-25T06:45:29.304Z,31.07
2022-12-25T06:47:57.748Z,26.57
2022-12-25T06:50:26.149Z,26.67
2022-12-25T06:52:54.567Z,25.27
2022-12-25T06:55:22.996Z,26.87
2022-12-25T06:57:52.558Z,26.40
2022-12-25T07:00:21.319Z,29.50
2022-12-25T07:02:50.868Z,32.33
2022-12-25T07:05:19.436Z,29.07
2022-12-25T07:07:47.874Z,27.43
2022-12-25T07:10:16.372Z,30.10
2022-12-25T07:12:44.781Z,30.97
2022-12-25T07:15:14.362Z,32.43
2022-12-25T07:17:43.572Z,30.00
2022-12-25T07:20:12.107Z,32.73
2022-12-25T07:22:41.069Z,32.20
2022-12-25T07:25:09.682Z,29.67
2022-12-25T07:27:38.147Z,30.23
2022-12-25T07:30:07.547Z,39.60
2022-12-25T07:32:37.091Z,33.43
2022-12-25T07:35:05.736Z,36.07
2022-12-25T07:37:33.918Z,37.53
2022-12-25T07:40:02.350Z,34.17
2022-12-25T07:42:30.973Z,39.67
2022-12-25T07:44:59.417Z,38.33
2022-12-25T07:47:27.797Z,42.57
2022-12-25T07:49:57.310Z,38.87
2022-12-25T07:52:25.734Z,33.97
2022-12-25T07:54:54.128Z,34.07
2022-12-25T07:57:22.515Z,30.87
2022-12-25T07:59:51.033Z,29.53
2022-12-25T08:02:20.526Z,29.50
2022-12-25T08:04:49.050Z,27.03
2022-12-25T08:07:18.611Z,29.33
2022-12-25T08:09:47.039Z,26.33
2022-12-25T08:12:15.501Z,27.57
2022-12-25T08:14:43.900Z,30.07
2022-12-25T08:17:12.465Z,30.60
2022-12-25T08:19:40.968Z,31.67
2022-12-25T08:22:09.394Z,36.47
2022-12-25T08:24:38.972Z,31.67
2022-12-25T08:27:07.420Z,33.30
2022-12-25T08:29:35.846Z,34.17
2022-12-25T08:32:04.266Z,32.70
2022-12-25T08:34:32.690Z,34.97
2022-12-25T08:37:01.105Z,34.27
2022-12-25T08:39:29.590Z,31.47
2022-12-25T08:41:59.168Z,33.77
2022-12-25T08:44:27.376Z,32.27
2022-12-25T08:46:55.772Z,37.73
2022-12-25T08:49:27.380Z,30.47
2022-12-25T08:51:55.682Z,33.57
2022-12-25T08:54:24.813Z,31.87
2022-12-25T08:56:56.134Z,33.67
2022-12-25T08:59:31.797Z,33.20
2022-12-25T09:02:00.332Z,37.07
2022-12-25T09:04:28.739Z,34.60
2022-12-25T09:06:56.873Z,35.13
2022-12-25T09:09:28.338Z,37.80
2022-12-25T09:11:56.836Z,33.73
2022-12-25T09:14:25.258Z,33.87
2022-12-25T09:16:54.785Z,34.40
2022-12-25T09:19:23.183Z,28.97
2022-12-25T09:21:51.616Z,31.27
2022-12-25T09:24:20.638Z,31.90
2022-12-25T09:26:49.131Z,34.63
2022-12-25T09:29:18.017Z,36.93
2022-12-25T09:31:46.460Z,33.30
2022-12-25T09:34:18.920Z,29.50
2022-12-25T09:36:47.574Z,32.03
2022-12-25T09:39:15.714Z,27.23
2022-12-25T09:41:56.624Z,30.13
2022-12-25T09:44:28.090Z,31.30
2022-12-25T09:47:00.467Z,28.60
2022-12-25T09:49:38.079Z,29.90
2022-12-25T09:52:11.648Z,27.13
2022-12-25T09:54:50.998Z,30.60
2022-12-25T09:57:19.195Z,25.93
2022-12-25T09:59:47.825Z,28.10
2022-12-25T10:02:46.301Z,27.30
2022-12-25T10:05:46.929Z,27.97
2022-12-25T10:08:22.073Z,25.47
2022-12-25T10:10:53.708Z,28.20
2022-12-25T10:13:46.604Z,24.73
2022-12-25T10:16:22.112Z,23.50
2022-12-25T10:19:10.676Z,23.93
2022-12-25T10:21:40.410Z,21.00
2022-12-25T10:24:19.022Z,17.17
2022-12-25T10:26:47.545Z,20.90
2022-12-25T10:29:17.459Z,20.20
2022-12-25T10:31:47.626Z,14.43
2022-12-25T10:34:17.155Z,14.13
2022-12-25T10:36:47.852Z,14.63
2022-12-25T10:39:18.855Z,12.60
2022-12-25T10:42:13.954Z,13.83
2022-12-25T10:44:42.674Z,17.00
2022-12-25T10:47:10.942Z,15.57
2022-12-25T10:49:40.418Z,13.60
2022-12-25T10:52:21.543Z,11.27
2022-12-25T10:54:49.867Z,12.07
2022-12-25T10:57:19.897Z,11.27
2022-12-25T10:59:50.206Z,13.43
2022-12-25T11:02:24.963Z,14.07
2022-12-25T11:05:01.422Z,9.60
2022-12-25T11:07:32.209Z,8.73
2022-12-25T11:10:05.681Z,10.27
2022-12-25T11:12:38.140Z,11.53
2022-12-25T11:15:28.066Z,11.03
2022-12-25T11:17:56.284Z,15.53
2022-12-25T11:20:25.215Z,16.07
2022-12-25T11:22:55.151Z,12.83
2022-12-25T11:25:25.219Z,13.27
2022-12-25T11:27:59.512Z,16.73
2022-12-25T11:30:30.118Z,16.97
2022-12-25T11:33:00.807Z,17.87
2022-12-25T11:35:33.103Z,10.13
2022-12-25T11:38:04.462Z,9.97
2022-12-25T11:40:41.348Z,12.23
2022-12-25T11:43:15.556Z,10.80
2022-12-25T11:45:50.210Z,11.80
2022-12-25T11:48:24.647Z,9.47
2022-12-25T11:50:56.629Z,11.13
2022-12-25T11:53:30.421Z,11.60
2022-12-25T11:56:02.912Z,11.67
2022-12-25T11:58:34.616Z,9.63
2022-12-25T12:01:08.423Z,11.37
2022-12-25T12:03:39.051Z,11.57
2022-12-25T12:06:14.366Z,12.67
2022-12-25T12:08:45.133Z,11.50
2022-12-25T12:11:19.592Z,14.27
2022-12-25T12:14:00.743Z,12.97
2022-12-25T12:16:29.413Z,27.67
2022-12-25T12:18:57.708Z,13.73
2022-12-25T12:21:29.958Z,13.80
2022-12-25T12:24:06.692Z,22.70
2022-12-25T12:26:38.173Z,24.40
2022-12-25T12:29:09.229Z,22.87
2022-12-25T12:31:41.176Z,11.47
2022-12-25T12:34:21.961Z,10.60
2022-12-25T12:36:51.105Z,10.70
2022-12-25T12:39:26.910Z,10.83
2022-12-25T12:41:55.330Z,10.40
2022-12-25T12:44:26.541Z,10.83
2022-12-25T12:46:56.430Z,11.13
2022-12-25T12:49:26.662Z,11.40
2022-12-25T12:52:06.357Z,10.10
2022-12-25T12:54:57.599Z,11.53
2022-12-25T12:57:29.312Z,12.00
2022-12-25T13:00:04.760Z,10.73
2022-12-25T13:02:55.355Z,11.33
2022-12-25T13:05:35.228Z,12.53
2022-12-25T13:08:18.449Z,12.73
2022-12-25T13:10:50.423Z,12.17
2022-12-25T13:13:22.892Z,11.67
2022-12-25T13:15:52.355Z,13.20
2022-12-25T13:18:20.778Z,13.03
2022-12-25T13:20:55.136Z,14.03
2022-12-25T13:23:28.949Z,13.33
2022-12-25T13:26:00.154Z,12.30
2022-12-25T13:28:29.811Z,11.67
2022-12-25T13:31:06.544Z,12.13
2022-12-25T13:33:35.808Z,12.63
2022-12-25T13:36:04.320Z,12.17
2022-12-25T13:38:32.946Z,13.03
2022-12-25T13:41:20.342Z,12.53
2022-12-25T13:43:50.633Z,12.27
2022-12-25T13:46:27.866Z,12.60
2022-12-25T13:49:00.430Z,12.70
2022-12-25T13:51:29.812Z,12.43
2022-12-25T13:54:07.687Z,13.57
2022-12-25T13:56:46.205Z,13.40
2022-12-25T13:59:17.249Z,13.73
2022-12-25T14:01:45.844Z,13.73
2022-12-25T14:04:17.197Z,14.17
2022-12-25T14:06:45.762Z,12.70
2022-12-25T14:09:15.115Z,13.70
2022-12-25T14:11:47.748Z,13.47
2022-12-25T14:14:20.100Z,13.93
2022-12-25T14:16:50.399Z,17.00
2022-12-25T14:19:26.919Z,15.73
2022-12-25T14:22:00.434Z,16.63
2022-12-25T14:24:29.720Z,16.43
2022-12-25T14:27:01.599Z,16.53
2022-12-25T14:29:36.629Z,15.10
2022-12-25T14:32:07.599Z,15.83
2022-12-25T14:34:36.254Z,15.00
2022-12-25T14:37:19.235Z,15.37
2022-12-25T14:39:56.473Z,14.13
2022-12-25T14:42:28.125Z,13.70
2022-12-25T14:45:04.906Z,14.20
2022-12-25T14:47:40.148Z,13.50
2022-12-25T14:50:16.527Z,14.97
2022-12-25T14:52:46.146Z,14.33
2022-12-25T14:55:22.034Z,15.27
2022-12-25T14:57:55.549Z,14.43
2022-12-25T15:00:25.803Z,14.40
2022-12-25T15:02:56.321Z,15.47
2022-12-25T15:05:28.350Z,15.40
2022-12-25T15:08:05.150Z,14.97
2022-12-25T15:13:24.002Z,16.73
2022-12-25T15:15:56.847Z,16.27
2022-12-25T15:18:28.154Z,17.13
2022-12-25T15:20:56.980Z,17.37
2022-12-25T15:23:25.613Z,17.27
2022-12-25T15:25:53.994Z,18.10
2022-12-25T15:28:23.569Z,19.33
2022-12-25T15:30:52.051Z,19.03
2022-12-25T15:33:20.521Z,19.47
2022-12-25T15:35:48.936Z,20.57
2022-12-25T15:38:17.156Z,19.70
2022-12-25T15:40:45.438Z,20.30
2022-12-25T15:43:39.243Z,22.10
2022-12-25T15:46:04.996Z,22.80
2022-12-25T15:48:33.138Z,23.43
2022-12-25T15:51:01.255Z,24.57
2022-12-25T15:53:29.362Z,22.97
2022-12-25T15:55:57.615Z,23.50
2022-12-25T15:58:25.842Z,24.43
2022-12-25T16:00:54.031Z,24.87
2022-12-25T16:03:23.724Z,24.53
2022-12-25T16:05:51.953Z,23.37
2022-12-25T16:08:20.144Z,25.23
2022-12-25T16:10:48.539Z,26.70
2022-12-25T16:13:16.695Z,27.50
2022-12-25T16:15:45.273Z,26.70
2022-12-25T16:18:13.472Z,24.97
2022-12-25T16:20:43.469Z,25.93
2022-12-25T16:23:11.892Z,26.37
2022-12-25T16:25:40.083Z,28.03
2022-12-25T16:28:10.346Z,26.47
2022-12-25T16:30:39.369Z,27.83
2022-12-25T16:33:08.118Z,26.43
2022-12-25T16:35:36.338Z,25.40
2022-12-25T16:38:05.919Z,26.90
2022-12-25T16:40:34.358Z,27.47
2022-12-25T16:43:02.540Z,27.10
2022-12-25T16:45:30.700Z,26.73
2022-12-25T16:47:58.828Z,27.23
2022-12-25T16:50:27.030Z,27.93
2022-12-25T16:52:55.195Z,27.97
2022-12-25T16:55:29.658Z,27.17
2022-12-25T16:57:58.501Z,26.90
2022-12-25T17:00:27.008Z,25.57
2022-12-25T17:02:56.083Z,25.27
2022-12-25T17:05:24.747Z,25.07
2022-12-25T17:07:53.232Z,26.67
2022-12-25T17:10:23.163Z,26.70
2022-12-25T17:12:52.666Z,25.07
2022-12-25T17:15:20.882Z,23.93
2022-12-25T17:17:49.024Z,23.70
2022-12-25T17:20:17.344Z,25.27
2022-12-25T17:22:45.536Z,24.87
2022-12-25T17:25:13.689Z,24.67
2022-12-25T17:27:41.813Z,26.57
2022-12-25T17:30:12.462Z,26.17
2022-12-25T17:32:40.649Z,26.80
2022-12-25T17:35:09.459Z,25.17
2022-12-25T17:37:37.592Z,28.67
2022-12-25T17:40:09.278Z,29.93
2022-12-25T17:42:37.458Z,29.17
2022-12-25T17:45:06.462Z,30.60
2022-12-25T17:47:36.027Z,32.33
2022-12-25T17:50:04.421Z,30.73
2022-12-25T17:52:32.595Z,30.00
2022-12-25T17:55:00.785Z,29.20
2022-12-25T17:57:29.002Z,29.43
2022-12-25T17:59:57.203Z,29.20
2022-12-25T18:02:25.562Z,29.37
2022-12-25T18:04:55.349Z,30.60
2022-12-25T18:07:23.585Z,30.63
2022-12-25T18:09:51.838Z,28.80
2022-12-25T18:12:20.083Z,29.90
2022-12-25T18:14:48.245Z,29.10
2022-12-25T18:17:16.453Z,28.30
2022-12-25T18:19:44.603Z,28.73
2022-12-25T18:22:14.258Z,29.13
2022-12-25T18:24:42.533Z,27.90
2022-12-25T18:27:11.054Z,28.63
2022-12-25T18:29:43.677Z,27.83
2022-12-25T18:32:11.927Z,29.43
2022-12-25T18:34:40.073Z,30.27
2022-12-25T18:37:08.262Z,35.20
2022-12-25T18:39:37.843Z,36.10
2022-12-25T18:42:23.787Z,36.87
2022-12-25T18:44:51.945Z,37.40
2022-12-25T18:47:20.365Z,37.00
2022-12-25T18:49:48.675Z,36.60
2022-12-25T18:52:49.304Z,36.17
2022-12-25T18:55:07.446Z,36.43
2022-12-25T18:57:35.927Z,35.20
2022-12-25T19:00:05.155Z,35.27
2022-12-25T19:02:33.546Z,35.57
2022-12-25T19:05:01.810Z,35.17
2022-12-25T19:07:30.039Z,35.97
2022-12-25T19:09:58.459Z,36.83
2022-12-25T19:12:28.177Z,34.27
2022-12-25T19:14:56.355Z,33.23
2022-12-25T19:17:31.876Z,33.43
2022-12-25T19:20:00.774Z,33.87
2022-12-25T19:22:29.299Z,34.00
2022-12-25T19:24:57.618Z,32.83
2022-12-25T19:27:27.217Z,33.70
2022-12-25T19:29:55.400Z,32.30
2022-12-25T19:32:23.555Z,31.80
2022-12-25T19:34:51.795Z,31.30
2022-12-25T19:37:19.915Z,30.47
2022-12-25T19:39:48.490Z,31.33
2022-12-25T19:42:18.931Z,32.77
2022-12-25T19:44:50.625Z,31.27
2022-12-25T19:47:18.781Z,30.03
2022-12-25T19:49:52.571Z,29.50
2022-12-25T19:52:21.391Z,30.73
2022-12-25T19:54:52.268Z,28.00
2022-12-25T19:57:20.635Z,31.13
2022-12-25T19:59:51.797Z,30.33
2022-12-25T20:02:20.066Z,30.80
2022-12-25T20:04:48.452Z,29.73
2022-12-25T20:07:16.719Z,29.40
2022-12-25T20:09:44.904Z,28.37
2022-12-25T20:12:15.065Z,31.13
2022-12-25T20:14:44.545Z,29.67
2022-12-25T20:17:16.165Z,30.20
2022-12-25T20:19:44.798Z,29.17
2022-12-25T20:22:15.877Z,30.67
2022-12-25T20:24:44.522Z,31.07
2022-12-25T20:27:12.673Z,31.37
2022-12-25T20:29:40.867Z,32.23
2022-12-25T20:32:09.524Z,31.77
2022-12-25T20:34:39.306Z,33.33
2022-12-25T20:37:07.482Z,30.77
2022-12-25T20:39:35.669Z,31.50
2022-12-25T20:42:03.878Z,31.53
2022-12-25T20:44:32.199Z,31.50
2022-12-25T20:47:03.438Z,33.10
2022-12-25T20:49:32.701Z,32.10
2022-12-25T20:52:05.575Z,31.87
2022-12-25T20:54:34.426Z,32.83
2022-12-25T20:57:02.660Z,32.73
2022-12-25T20:59:36.916Z,32.47
2022-12-25T21:02:05.618Z,32.40
2022-12-25T21:04:34.000Z,33.20
2022-12-25T21:07:03.707Z,31.80
2022-12-25T21:09:32.015Z,30.70
2022-12-25T21:12:00.216Z,30.03
2022-12-25T21:14:29.594Z,29.97
2022-12-25T21:16:57.834Z,29.83
2022-12-25T21:19:26.118Z,30.07
2022-12-25T21:21:54.530Z,29.37
2022-12-25T21:24:24.126Z,30.27
2022-12-25T21:26:52.336Z,28.97
2022-12-25T21:29:22.956Z,28.90
2022-12-25T21:32:08.663Z,29.37
2022-12-25T21:34:37.009Z,28.80
2022-12-25T21:37:05.253Z,27.73
2022-12-25T21:39:37.416Z,28.07
2022-12-25T21:42:05.724Z,27.87
2022-12-25T21:44:33.946Z,29.57
2022-12-25T21:47:04.165Z,26.47
2022-12-25T21:49:52.105Z,26.33
2022-12-25T21:52:20.586Z,26.40
2022-12-25T21:54:52.740Z,26.13
2022-12-25T21:57:21.243Z,26.40
2022-12-25T21:59:49.743Z,25.70
2022-12-25T22:02:18.132Z,27.07
2022-12-25T22:04:46.476Z,24.40
2022-12-25T22:07:20.004Z,25.23
2022-12-25T22:09:51.202Z,25.47
2022-12-25T22:12:38.926Z,26.17
2022-12-25T22:15:09.720Z,28.37
2022-12-25T22:17:57.036Z,25.97
2022-12-25T22:20:27.715Z,24.37
2022-12-25T22:22:56.202Z,26.23
2022-12-25T22:25:26.094Z,24.03
2022-12-25T22:27:54.774Z,25.10
2022-12-25T22:30:25.541Z,23.50
2022-12-25T22:32:54.288Z,27.13
2022-12-25T22:35:23.062Z,25.67
2022-12-25T22:37:51.463Z,25.77
2022-12-25T22:40:21.325Z,27.63
2022-12-25T22:42:50.887Z,26.73
2022-12-25T22:45:19.154Z,26.00
2022-12-25T22:47:47.324Z,25.80
2022-12-25T22:50:16.243Z,26.70
2022-12-25T22:52:45.819Z,27.40
2022-12-25T22:55:18.350Z,25.67
2022-12-25T22:57:46.655Z,27.00
2022-12-25T23:00:16.569Z,26.43
2022-12-25T23:02:45.017Z,27.23
2022-12-25T23:05:13.288Z,27.60
2022-12-25T23:07:41.817Z,27.43
2022-12-25T23:10:11.279Z,27.47
2022-12-25T23:12:57.344Z,28.67
2022-12-25T23:15:27.759Z,27.00
2022-12-25T23:18:13.323Z,27.80
2022-12-25T23:20:58.782Z,29.60
2022-12-25T23:23:44.149Z,28.20
2022-12-25T23:26:12.613Z,28.00
2022-12-25T23:29:00.610Z,29.43
2022-12-25T23:31:33.664Z,30.10
2022-12-25T23:34:02.757Z,30.80
2022-12-25T23:36:30.926Z,28.93
2022-12-25T23:39:04.745Z,29.90
2022-12-25T23:41:37.067Z,29.17
2022-12-25T23:44:05.693Z,28.17
2022-12-25T23:46:35.292Z,29.67
2022-12-25T23:49:03.487Z,28.73
2022-12-25T23:51:31.734Z,30.83
2022-12-25T23:53:59.912Z,30.40
2022-12-25T23:56:28.082Z,31.93
2022-12-25T23:58:56.239Z,31.43
